createdAt,value
2018-03-22T00:02:20.933Z,5.97
2018-03-22T00:05:24.533Z,6.00
2018-03-22T00:08:29.888Z,5.37
2018-03-22T00:11:34.309Z,5.93
2018-03-22T00:14:37.802Z,6.87
2018-03-22T00:17:42.283Z,6.57
2018-03-22T00:20:45.721Z,5.90
2018-03-22T00:23:49.274Z,6.40
2018-03-22T00:26:52.674Z,5.63
2018-03-22T00:29:56.068Z,5.57
2018-03-22T00:32:59.585Z,6.17
2018-03-22T00:36:03.117Z,5.40
2018-03-22T00:39:06.604Z,5.27
2018-03-22T00:42:10.097Z,5.70
2018-03-22T00:45:13.638Z,5.73
2018-03-22T00:48:17.089Z,5.53
2018-03-22T00:51:20.518Z,5.80
2018-03-22T00:54:27.617Z,5.70
2018-03-22T00:57:32.249Z,5.73
2018-03-22T01:00:41.428Z,5.77
2018-03-22T01:03:50.481Z,6.30
2018-03-22T01:06:53.877Z,6.13
2018-03-22T01:09:57.367Z,6.27
2018-03-22T01:13:12.523Z,6.43
2018-03-22T01:16:15.913Z,6.37
2018-03-22T01:19:20.313Z,6.27
2018-03-22T01:22:24.771Z,6.77
2018-03-22T01:25:32.653Z,6.83
2018-03-22T01:28:40.257Z,6.77
2018-03-22T01:31:51.009Z,6.53
2018-03-22T01:34:59.712Z,7.60
2018-03-22T01:38:05.247Z,8.17
2018-03-22T01:41:09.697Z,7.77
2018-03-22T01:44:16.941Z,7.30
2018-03-22T01:47:20.455Z,7.03
2018-03-22T01:50:23.933Z,6.50
2018-03-22T01:53:27.420Z,6.60
2018-03-22T01:56:32.785Z,6.47
2018-03-22T01:59:36.161Z,6.43
2018-03-22T02:02:49.181Z,6.00
2018-03-22T02:05:54.537Z,5.93
2018-03-22T02:09:04.165Z,6.00
2018-03-22T02:12:07.470Z,6.40
2018-03-22T02:15:10.825Z,7.50
2018-03-22T02:18:20.064Z,8.17
2018-03-22T02:21:25.488Z,7.03
2018-03-22T02:24:28.951Z,6.43
2018-03-22T02:27:33.450Z,6.53
2018-03-22T02:30:36.941Z,7.43
2018-03-22T02:33:41.321Z,6.30
2018-03-22T02:36:54.481Z,7.33
2018-03-22T02:39:58.014Z,6.30
2018-03-22T02:43:01.432Z,6.30
2018-03-22T02:46:09.340Z,5.97
2018-03-22T02:49:12.786Z,6.03
2018-03-22T02:52:21.754Z,6.50
2018-03-22T02:55:28.985Z,6.00
2018-03-22T02:58:38.912Z,5.80
2018-03-22T03:01:46.941Z,6.33
2018-03-22T03:04:50.286Z,6.83
2018-03-22T03:07:53.902Z,6.00
2018-03-22T03:10:58.269Z,6.13
2018-03-22T03:14:01.732Z,6.47
2018-03-22T03:17:05.159Z,5.90
2018-03-22T03:20:08.729Z,5.20
2018-03-22T03:23:15.984Z,5.50
2018-03-22T03:26:19.449Z,5.23
2018-03-22T03:32:51.028Z,5.53
2018-03-22T03:35:56.528Z,5.80
2018-03-22T03:38:59.953Z,5.47
2018-03-22T03:42:03.404Z,5.20
2018-03-22T03:45:07.776Z,6.83
2018-03-22T03:48:15.656Z,6.77
2018-03-22T03:51:20.152Z,5.50
2018-03-22T03:54:23.625Z,5.37
2018-03-22T03:57:28.119Z,5.87
2018-03-22T04:00:31.529Z,5.00
2018-03-22T04:03:35.033Z,4.80
2018-03-22T04:06:38.414Z,5.33
2018-03-22T04:09:43.881Z,5.67
2018-03-22T04:12:47.311Z,5.40
2018-03-22T04:15:50.789Z,5.77
2018-03-22T04:18:58.362Z,5.70
2018-03-22T04:22:01.694Z,5.60
2018-03-22T04:25:06.262Z,5.90
2018-03-22T04:28:11.831Z,6.03
2018-03-22T04:31:19.189Z,5.23
2018-03-22T04:34:22.646Z,6.13
2018-03-22T04:37:31.137Z,5.93
2018-03-22T04:40:36.560Z,5.87
2018-03-22T04:43:40.013Z,5.97
2018-03-22T04:46:44.899Z,5.90
2018-03-22T04:49:48.373Z,5.70
2018-03-22T04:52:52.754Z,5.70
2018-03-22T04:55:58.293Z,6.00
2018-03-22T04:59:02.091Z,6.10
2018-03-22T05:02:06.647Z,5.23
2018-03-22T05:05:10.105Z,5.20
2018-03-22T05:08:13.604Z,5.77
2018-03-22T05:11:18.610Z,5.40
2018-03-22T05:14:22.029Z,5.43
2018-03-22T05:17:30.173Z,5.50
2018-03-22T05:20:33.696Z,5.10
2018-03-22T05:23:38.156Z,4.57
2018-03-22T05:26:42.409Z,4.47
2018-03-22T05:29:46.764Z,4.80
2018-03-22T05:32:55.677Z,5.60
2018-03-22T05:35:59.183Z,5.23
2018-03-22T05:39:06.693Z,4.37
2018-03-22T05:42:10.108Z,4.50
2018-03-22T05:45:13.581Z,4.87
2018-03-22T05:48:16.897Z,5.27
2018-03-22T05:51:20.409Z,4.53
2018-03-22T05:54:24.878Z,4.97
2018-03-22T05:57:30.078Z,4.70
2018-03-22T06:00:33.431Z,6.67
2018-03-22T06:03:41.359Z,5.57
2018-03-22T06:06:44.689Z,5.57
2018-03-22T06:09:49.060Z,4.93
2018-03-22T06:12:52.473Z,5.67
2018-03-22T06:15:55.820Z,5.03
2018-03-22T06:19:00.103Z,5.20
2018-03-22T06:22:03.479Z,4.87
2018-03-22T06:25:06.885Z,5.63
2018-03-22T06:28:12.200Z,5.97
2018-03-22T06:31:15.483Z,5.80
2018-03-22T06:34:20.869Z,5.57
2018-03-22T06:37:31.806Z,5.70
2018-03-22T06:40:35.276Z,5.60
2018-03-22T06:43:38.540Z,5.13
2018-03-22T06:46:42.997Z,5.73
2018-03-22T06:49:46.406Z,5.10
2018-03-22T06:52:49.849Z,5.40
2018-03-22T06:55:53.180Z,5.83
2018-03-22T06:58:57.528Z,6.03
2018-03-22T07:02:02.981Z,5.93
2018-03-22T07:05:07.357Z,5.83
2018-03-22T07:08:10.770Z,5.53
2018-03-22T07:11:14.184Z,5.80
2018-03-22T07:14:19.912Z,6.27
2018-03-22T07:17:30.380Z,6.30
2018-03-22T07:20:33.834Z,6.10
2018-03-22T07:23:37.316Z,6.27
2018-03-22T07:26:50.717Z,6.00
2018-03-22T07:29:57.066Z,6.00
2018-03-22T07:33:01.091Z,6.60
2018-03-22T07:36:04.541Z,6.73
2018-03-22T07:39:13.802Z,6.03
2018-03-22T07:42:17.960Z,6.43
2018-03-22T07:45:22.107Z,7.03
2018-03-22T07:48:25.316Z,6.40
2018-03-22T07:51:28.464Z,6.60
2018-03-22T07:54:32.021Z,6.47
2018-03-22T07:57:37.204Z,6.80
2018-03-22T08:00:42.483Z,6.97
2018-03-22T08:03:51.861Z,7.67
2018-03-22T08:06:57.032Z,7.40
2018-03-22T08:10:00.245Z,6.80
2018-03-22T08:13:07.817Z,7.10
2018-03-22T08:16:11.049Z,6.57
2018-03-22T08:19:16.327Z,7.27
2018-03-22T08:22:24.977Z,7.20
2018-03-22T08:25:28.176Z,6.80
2018-03-22T08:28:32.328Z,7.03
2018-03-22T08:31:36.534Z,7.30
2018-03-22T08:34:48.166Z,7.23
2018-03-22T08:37:53.296Z,6.83
2018-03-22T08:40:59.794Z,7.00
2018-03-22T08:44:03.007Z,6.27
2018-03-22T08:47:07.570Z,6.30
2018-03-22T08:50:16.097Z,6.60
2018-03-22T08:53:19.599Z,7.37
2018-03-22T08:56:22.912Z,6.77
2018-03-22T08:59:29.974Z,6.50
2018-03-22T09:02:33.341Z,6.70
2018-03-22T09:05:44.150Z,6.87
2018-03-22T09:08:48.049Z,7.17
2018-03-22T09:11:51.572Z,7.10
2018-03-22T09:15:07.342Z,7.13
2018-03-22T09:18:10.557Z,7.17
2018-03-22T09:21:14.074Z,6.77
2018-03-22T09:24:17.293Z,7.43
2018-03-22T09:27:21.729Z,7.37
2018-03-22T09:30:24.945Z,7.30
2018-03-22T09:33:28.218Z,7.67
2018-03-22T09:36:31.410Z,7.53
2018-03-22T09:39:34.578Z,7.70
2018-03-22T09:42:37.828Z,8.43
2018-03-22T09:45:41.012Z,8.50
2018-03-22T09:48:44.192Z,8.50
2018-03-22T09:51:47.375Z,8.20
2018-03-22T09:54:51.618Z,8.60
2018-03-22T09:57:54.827Z,8.10
2018-03-22T10:00:58.108Z,8.07
2018-03-22T10:04:01.264Z,8.90
2018-03-22T10:07:04.503Z,8.07
2018-03-22T10:10:07.786Z,8.00
2018-03-22T10:13:11.042Z,8.13
2018-03-22T10:16:14.282Z,8.47
2018-03-22T10:19:17.474Z,8.97
2018-03-22T10:22:21.354Z,9.03
2018-03-22T10:25:24.581Z,8.50
2018-03-22T10:28:27.799Z,9.60
2018-03-22T10:31:31.102Z,9.70
2018-03-22T10:34:34.283Z,9.40
2018-03-22T10:37:37.460Z,9.73
2018-03-22T10:40:40.692Z,9.20
2018-03-22T10:43:43.863Z,9.57
2018-03-22T10:46:48.034Z,9.50
2018-03-22T10:49:52.417Z,10.53
2018-03-22T10:52:55.579Z,10.00
2018-03-22T10:55:58.781Z,11.27
2018-03-22T10:59:01.938Z,11.50
2018-03-22T11:02:09.370Z,11.30
2018-03-22T11:05:12.520Z,11.97
2018-03-22T11:08:15.765Z,12.13
2018-03-22T11:11:19.954Z,14.77
2018-03-22T11:14:23.195Z,14.07
2018-03-22T11:17:26.405Z,11.90
2018-03-22T11:20:29.608Z,12.33
2018-03-22T11:23:32.877Z,12.83
2018-03-22T11:26:36.100Z,12.40
2018-03-22T11:29:39.282Z,11.50
2018-03-22T11:32:42.585Z,11.33
2018-03-22T11:35:45.756Z,11.27
2018-03-22T11:38:49.936Z,11.07
2018-03-22T11:41:53.118Z,12.33
2018-03-22T11:44:56.346Z,11.27
2018-03-22T11:47:59.563Z,12.27
2018-03-22T11:51:02.859Z,12.07
2018-03-22T11:54:06.088Z,12.73
2018-03-22T11:57:09.303Z,13.13
2018-03-22T12:00:12.557Z,11.90
2018-03-22T12:03:15.875Z,13.00
2018-03-22T12:06:19.607Z,13.80
2018-03-22T12:09:22.843Z,13.67
2018-03-22T12:12:26.134Z,14.00
2018-03-22T12:15:29.335Z,14.07
2018-03-22T12:18:32.590Z,15.57
2018-03-22T12:21:35.880Z,14.30
2018-03-22T12:24:39.034Z,14.20
2018-03-22T12:27:42.259Z,13.97
2018-03-22T12:30:45.551Z,14.73
2018-03-22T12:33:49.588Z,14.77
2018-03-22T12:36:52.810Z,13.67
2018-03-22T12:39:56.058Z,12.93
2018-03-22T12:42:59.237Z,13.27
2018-03-22T12:46:02.574Z,13.77
2018-03-22T12:49:05.794Z,12.63
2018-03-22T12:52:09.010Z,12.77
2018-03-22T12:55:12.198Z,12.83
2018-03-22T12:58:15.524Z,12.43
2018-03-22T13:01:19.579Z,12.10
2018-03-22T13:04:22.742Z,11.23
2018-03-22T13:07:26.046Z,11.33
2018-03-22T13:10:29.376Z,10.23
2018-03-22T13:13:32.571Z,10.57
2018-03-22T13:16:35.803Z,12.60
2018-03-22T13:19:39.089Z,14.30
2018-03-22T13:22:42.303Z,14.07
2018-03-22T13:25:45.546Z,14.77
2018-03-22T13:28:48.728Z,14.30
2018-03-22T13:31:52.444Z,14.33
2018-03-22T13:34:55.642Z,15.43
2018-03-22T13:37:58.894Z,13.90
2018-03-22T13:41:02.207Z,15.30
2018-03-22T13:44:05.414Z,14.57
2018-03-22T13:47:09.434Z,14.53
2018-03-22T13:50:12.755Z,13.87
2018-03-22T13:53:15.970Z,13.97
2018-03-22T13:56:19.164Z,14.70
2018-03-22T13:59:23.453Z,14.43
2018-03-22T14:02:26.732Z,14.27
2018-03-22T14:05:29.993Z,13.77
2018-03-22T14:08:33.278Z,13.50
2018-03-22T14:11:36.645Z,13.00
2018-03-22T14:14:39.790Z,12.47
2018-03-22T14:17:43.223Z,12.73
2018-03-22T14:20:46.375Z,13.27
2018-03-22T14:23:49.600Z,12.27
2018-03-22T14:26:52.894Z,12.57
2018-03-22T14:29:56.088Z,13.30
2018-03-22T14:32:59.401Z,13.20
2018-03-22T14:36:02.589Z,13.17
2018-03-22T14:39:05.967Z,12.43
2018-03-22T14:42:09.270Z,12.03
2018-03-22T14:45:12.571Z,12.77
2018-03-22T14:48:15.742Z,12.60
2018-03-22T14:51:19.826Z,13.00
2018-03-22T14:54:23.042Z,13.00
2018-03-22T14:57:26.283Z,12.83
2018-03-22T15:00:29.620Z,13.27
2018-03-22T15:03:33.123Z,12.67
2018-03-22T15:06:36.390Z,13.47
2018-03-22T15:09:39.767Z,13.17
2018-03-22T15:12:42.983Z,12.40
2018-03-22T15:15:46.214Z,12.37
2018-03-22T15:18:49.910Z,12.43
2018-03-22T15:21:53.413Z,12.23
2018-03-22T15:24:56.708Z,11.40
2018-03-22T15:28:00.223Z,12.93
2018-03-22T15:31:03.590Z,13.07
2018-03-22T15:34:07.212Z,12.83
2018-03-22T15:37:10.430Z,12.43
2018-03-22T15:40:13.644Z,12.50
2018-03-22T15:43:16.850Z,13.53
2018-03-22T15:46:20.900Z,12.87
2018-03-22T15:49:24.166Z,14.07
2018-03-22T15:52:27.464Z,13.30
2018-03-22T15:55:30.640Z,13.97
2018-03-22T15:58:33.871Z,13.80
2018-03-22T16:01:37.205Z,14.67
2018-03-22T16:04:40.414Z,16.27
2018-03-22T16:07:43.727Z,14.63
2018-03-22T16:10:46.956Z,14.43
2018-03-22T16:13:50.201Z,14.37
2018-03-22T16:16:53.433Z,14.60
2018-03-22T16:19:56.648Z,13.93
2018-03-22T16:22:59.872Z,15.03
2018-03-22T16:26:03.050Z,15.20
2018-03-22T16:29:06.360Z,15.60
2018-03-22T16:32:09.624Z,15.67
2018-03-22T16:35:12.834Z,14.73
2018-03-22T16:38:16.102Z,14.57
2018-03-22T16:41:19.335Z,14.93
2018-03-22T16:44:24.100Z,15.40
2018-03-22T16:47:27.345Z,16.03
2018-03-22T16:50:30.490Z,15.70
2018-03-22T16:53:33.736Z,15.37
2018-03-22T16:56:37.175Z,15.53
2018-03-22T16:59:40.529Z,16.40
2018-03-22T17:02:43.834Z,15.20
2018-03-22T17:05:47.003Z,15.80
2018-03-22T17:08:51.374Z,15.60
2018-03-22T17:11:54.655Z,15.40
2018-03-22T17:14:58.079Z,16.13
2018-03-22T17:18:01.201Z,16.37
2018-03-22T17:21:04.402Z,14.57
2018-03-22T17:24:07.753Z,13.57
2018-03-22T17:27:11.252Z,15.13
2018-03-22T17:30:14.552Z,12.87
2018-03-22T17:33:17.813Z,12.87
2018-03-22T17:36:21.459Z,13.47
2018-03-22T17:39:24.851Z,13.93
2018-03-22T17:42:28.250Z,13.77
2018-03-22T17:45:31.538Z,14.23
2018-03-22T17:48:34.785Z,14.27
2018-03-22T17:51:37.984Z,13.17
2018-03-22T17:54:41.194Z,13.73
2018-03-22T17:57:45.884Z,13.13
2018-03-22T18:00:49.153Z,13.67
2018-03-22T18:03:52.483Z,13.53
2018-03-22T18:06:55.768Z,12.10
2018-03-22T18:09:59.161Z,13.70
2018-03-22T18:13:02.464Z,13.57
2018-03-22T18:16:05.812Z,15.20
2018-03-22T18:19:21.734Z,14.00
2018-03-22T18:22:24.989Z,13.83
2018-03-22T18:25:30.192Z,13.77
2018-03-22T18:28:38.166Z,14.57
2018-03-22T18:31:41.689Z,14.47
2018-03-22T18:34:46.234Z,14.93
2018-03-22T18:37:49.491Z,13.63
2018-03-22T18:40:52.829Z,13.87
2018-03-22T18:43:56.241Z,15.63
2018-03-22T18:47:00.514Z,14.50
2018-03-22T18:50:03.726Z,15.17
2018-03-22T18:53:07.030Z,14.43
2018-03-22T18:56:10.326Z,15.03
2018-03-22T18:59:19.342Z,15.97
2018-03-22T19:02:22.510Z,15.43
2018-03-22T19:05:27.855Z,15.57
2018-03-22T19:08:31.078Z,17.00
2018-03-22T19:11:37.429Z,16.77
2018-03-22T19:14:43.728Z,18.30
2018-03-22T19:17:48.151Z,17.50
2018-03-22T19:24:06.518Z,18.40
2018-03-22T19:27:10.018Z,16.23
2018-03-22T19:30:13.264Z,18.47
2018-03-22T19:33:18.048Z,18.87
2018-03-22T19:36:21.575Z,20.57
2018-03-22T19:39:24.883Z,18.83
2018-03-22T19:42:28.209Z,18.93
2018-03-22T19:45:31.477Z,18.63
2018-03-22T19:48:35.146Z,20.77
2018-03-22T19:51:38.350Z,19.40
2018-03-22T19:54:41.646Z,19.63
2018-03-22T19:57:45.891Z,19.10
2018-03-22T20:00:49.254Z,19.80
2018-03-22T20:03:52.663Z,18.77
2018-03-22T20:06:56.068Z,19.00
2018-03-22T20:09:59.468Z,17.80
2018-03-22T20:13:02.778Z,19.70
2018-03-22T20:16:06.407Z,19.70
2018-03-22T20:19:09.725Z,19.73
2018-03-22T20:22:13.004Z,20.20
2018-03-22T20:25:17.211Z,19.17
2018-03-22T20:28:20.510Z,19.57
2018-03-22T20:31:23.847Z,20.10
2018-03-22T20:34:27.091Z,19.37
2018-03-22T20:37:30.499Z,20.40
2018-03-22T20:40:33.722Z,20.55
2018-03-22T20:43:36.980Z,20.77
2018-03-22T20:46:40.275Z,21.30
2018-03-22T20:49:43.806Z,21.97
2018-03-22T20:52:47.083Z,20.87
2018-03-22T20:55:50.429Z,21.50
2018-03-22T20:58:53.862Z,21.40
2018-03-22T21:01:57.152Z,21.40
2018-03-22T21:05:00.498Z,20.60
2018-03-22T21:08:03.742Z,22.37
2018-03-22T21:11:06.999Z,21.77
2018-03-22T21:14:10.444Z,23.40
2018-03-22T21:17:13.679Z,22.80
2018-03-22T21:20:17.096Z,21.23
2018-03-22T21:23:20.474Z,21.50
2018-03-22T21:26:23.727Z,23.07
2018-03-22T21:29:26.947Z,21.67
2018-03-22T21:32:30.267Z,23.63
2018-03-22T21:35:33.663Z,22.90
2018-03-22T21:38:37.076Z,23.83
2018-03-22T21:41:49.237Z,21.57
2018-03-22T21:44:52.578Z,23.30
2018-03-22T21:47:56.815Z,21.57
2018-03-22T21:51:01.352Z,23.67
2018-03-22T21:54:04.751Z,22.60
2018-03-22T21:57:08.007Z,24.03
2018-03-22T22:00:11.484Z,22.43
2018-03-22T22:03:14.877Z,23.07
2018-03-22T22:06:18.231Z,23.13
2018-03-22T22:09:21.583Z,24.23
2018-03-22T22:12:24.920Z,22.23
2018-03-22T22:15:28.326Z,23.17
2018-03-22T22:18:32.021Z,22.53
2018-03-22T22:21:35.281Z,21.63
2018-03-22T22:24:38.656Z,22.93
2018-03-22T22:27:41.933Z,23.43
2018-03-22T22:30:45.594Z,22.77
2018-03-22T22:33:49.038Z,23.33
2018-03-22T22:36:52.315Z,23.23
2018-03-22T22:39:55.838Z,22.70
2018-03-22T22:42:59.213Z,22.23
2018-03-22T22:46:02.556Z,23.23
2018-03-22T22:49:05.878Z,23.60
2018-03-22T22:52:09.140Z,23.77
2018-03-22T22:55:12.384Z,23.93
2018-03-22T22:58:15.810Z,22.33
2018-03-22T23:01:19.105Z,23.77
2018-03-22T23:04:22.407Z,22.87
2018-03-22T23:07:25.710Z,22.73
2018-03-22T23:10:29.023Z,23.90
2018-03-22T23:13:32.290Z,22.67
2018-03-22T23:16:35.559Z,22.77
2018-03-22T23:19:38.955Z,22.97
2018-03-22T23:22:42.197Z,24.27
2018-03-22T23:25:45.648Z,21.87
2018-03-22T23:28:48.900Z,21.93
2018-03-22T23:31:52.206Z,22.97
2018-03-22T23:34:55.638Z,22.40
2018-03-22T23:37:59.030Z,24.43
2018-03-22T23:41:02.297Z,23.33
2018-03-22T23:44:05.498Z,22.63
2018-03-22T23:47:08.754Z,22.57
2018-03-22T23:50:12.005Z,21.60
2018-03-22T23:53:15.218Z,23.30
2018-03-22T23:56:18.474Z,22.77
2018-03-22T23:59:21.785Z,22.60
